Latest Weather Observations for Swan Island

IDT60801

Issued at 6:31 pm EST Wednesday 24 August 2016 (issued every 30 minutes, with the page automatically refreshed every 10 minutes)

About weather observations | Map of weather stations | Latest weather observations for TAS | Other Formats
Station Details ID: 092123 Name: SWAN ISLAND Lat: -40.73 Lon: 148.12 Height: 15.0 m
Data from the previous 72 hours. | See also: Recent months at Swan Island
Date/Time
EST
Temp
°C
App
Temp
°C
Dew
Point
°C
Rel
Hum
%
Delta-T
°C
Wind Press
QNH
hPa
Press
MSL
hPa
Rain since
9am
mm
Dir  Spd
km/h
Gust
km/h
Spd
kts
Gust
kts
24/06:30pm 10.1 4.6 5.9 75 1.9 W 24 32 13 17 1010.4 1010.5 0.0
24/06:00pm 10.1 5.5 5.5 73 2.1 W 19 26 10 14 1010.4 1010.5 0.0
24/05:30pm 10.1 5.4 5.3 72 2.2 W 19 28 10 15 1010.3 1010.4 0.0
24/05:00pm 10.6 5.8 5.6 71 2.3 W 20 30 11 16 1010.2 1010.3 0.0
24/04:30pm 11.1 6.4 6.0 71 2.4 WNW 20 30 11 16 1010.2 1010.3 0.0
24/04:00pm 11.5 7.1 6.4 71 2.4 WNW 19 30 10 16 1010.3 1010.4 0.0
24/03:30pm 12.0 7.9 6.3 68 2.7 WNW 17 26 9 14 1010.2 1010.3 0.0
24/03:00pm 12.2 7.7 6.3 67 2.8 WNW 19 26 10 14 1010.4 1010.5 0.0
24/02:30pm 12.6 8.0 5.8 63 3.2 W 19 26 10 14 1010.5 1010.6 0.0
24/02:00pm 13.1 8.7 5.0 58 3.8 W 17 26 9 14 1010.7 1010.8 0.0
24/01:30pm 13.1 8.3 4.5 56 3.9 W 19 28 10 15 1011.1 1011.1 0.0
24/01:00pm 13.2 8.8 4.9 57 3.8 WNW 17 28 9 15 1011.5 1011.5 0.0
24/12:30pm 13.0 8.9 4.2 55 4.0 W 15 24 8 13 1012.0 1012.0 0.0
24/12:00pm 12.2 8.2 4.9 61 3.3 WNW 15 22 8 12 1012.5 1012.5 0.0
24/11:30am 12.3 8.0 5.2 62 3.3 W 17 22 9 12 1012.9 1012.9 0.0
24/11:00am 11.4 7.2 5.5 67 2.7 W 17 22 9 12 1013.2 1013.2 0.0
24/10:30am 10.4 5.6 4.8 68 2.5 W 19 24 10 13 1013.5 1013.5 0.0
24/10:00am 9.7 5.6 4.1 68 2.5 W 15 20 8 11 1013.6 1013.6 0.0
24/09:30am 9.7 6.4 4.3 69 2.4 W 11 19 6 10 1013.9 1013.9 0.0
24/09:00am 9.2 5.4 4.0 70 2.3 W 13 20 7 11 1014.2 1014.2 0.0
24/08:30am 8.8 4.7 4.6 75 1.9 W 15 22 8 12 1014.3 1014.3 0.0
24/08:00am 7.8 3.7 4.4 79 1.5 W 15 20 8 11 1014.3 1014.3 0.0
24/07:30am 6.7 3.0 4.2 84 1.1 W 13 19 7 10 1014.2 1014.2 0.0
24/07:00am 5.9 2.4 3.6 85 1.0 WSW 11 19 6 10 1014.1 1014.1 0.0
24/06:30am 5.6 1.7 3.4 86 0.9 W 13 19 7 10 1014.0 1014.0 0.0
24/06:00am 5.2 1.3 3.2 87 0.8 WSW 13 15 7 8 1013.9 1013.9 0.0
24/05:30am 5.4 1.9 3.4 87 0.8 WSW 11 13 6 7 1013.9 1013.9 0.0
24/05:00am 5.5 1.6 3.2 85 1.0 WSW 13 15 7 8 1013.9 1013.9 0.0
24/04:30am 6.2 3.7 3.9 85 1.0 WSW 6 7 3 4 1013.8 1013.8 0.0
24/04:00am 5.7 2.5 3.2 84 1.0 W 9 11 5 6 1013.6 1013.6 0.0
24/03:30am 5.4 2.2 2.8 83 1.1 WSW 9 11 5 6 1013.7 1013.7 0.0
24/03:00am 5.5 2.2 2.7 82 1.1 WSW 9 9 5 5 1013.7 1013.7 0.0
24/02:30am 6.2 3.4 3.2 81 1.3 WSW 7 9 4 5 1013.9 1013.9 0.0
24/02:00am 6.6 4.0 3.2 79 1.4 SW 6 7 3 4 1014.2 1014.2 0.0
24/01:30am 6.8 4.3 3.6 80 1.4 WSW 6 6 3 3 1014.4 1014.4 0.0
24/01:00am 7.2 4.7 3.8 79 1.5 SW 6 6 3 3 1014.5 1014.5 0.0
24/12:30am 7.1 4.6 3.5 78 1.5 WSW 6 6 3 3 1014.7 1014.7 0.0
24/12:00am 7.6 5.1 3.8 77 1.6 SW 6 7 3 4 1014.9 1014.9 0.0
 
Date/Time
EST
Temp
°C
App
Temp
°C
Dew
Point
°C
Rel
Hum
%
Delta-T
°C
Wind Press
QNH
hPa
Press
MSL
hPa
Rain since
9am
mm
Dir  Spd
km/h
Gust
km/h
Spd
kts
Gust
kts
23/11:30pm 7.5 4.8 3.6 76 1.7 WSW 7 9 4 5 1015.0 1015.0 0.0
23/11:00pm 8.3 5.7 4.3 76 1.7 WSW 7 9 4 5 1015.1 1015.1 0.0
23/10:30pm 9.9 7.2 5.7 75 1.9 WNW 9 13 5 7 1015.2 1015.2 0.0
23/10:00pm 10.0 6.9 5.6 74 2.0 NW 11 13 6 7 1015.4 1015.4 0.0
23/09:30pm 9.6 6.7 4.6 71 2.2 WNW 9 13 5 7 1015.4 1015.4 0.0
23/09:00pm 9.4 6.3 3.6 67 2.5 WNW 9 13 5 7 1015.6 1015.6 0.0
23/08:30pm 9.3 6.1 3.3 66 2.6 NW 9 11 5 6 1015.5 1015.5 0.0
23/08:00pm 9.0 5.8 3.0 66 2.6 WNW 9 11 5 6 1015.4 1015.4 0.0
23/07:30pm 8.6 5.8 3.2 69 2.3 W 7 9 4 5 1015.4 1015.4 0.0
23/07:00pm 8.3 5.3 1.9 64 2.6 W 7 11 4 6 1015.3 1015.3 0.0
23/06:30pm 8.9 5.7 2.9 66 2.6 WNW 9 13 5 7 1015.4 1015.4 0.0
23/06:00pm 9.1 5.9 3.1 66 2.6 NW 9 13 5 7 1015.1 1015.1 0.0
23/05:30pm 9.4 5.8 2.7 63 2.9 NW 11 13 6 7 1014.9 1014.9 0.0
23/05:00pm 10.1 6.9 3.2 62 3.0 NW 9 15 5 8 1014.5 1014.5 0.0
23/04:30pm 10.4 6.9 3.7 63 2.9 NW 11 15 6 8 1014.2 1014.2 0.0
23/04:00pm 10.8 7.2 3.1 59 3.3 NW 11 13 6 7 1014.1 1014.1 0.0
23/03:30pm 11.2 7.7 3.3 58 3.5 NW 11 15 6 8 1013.9 1013.9 0.0
23/03:00pm 11.4 7.8 2.9 56 3.7 WNW 11 17 6 9 1013.7 1013.7 0.0
23/02:30pm 11.5 7.8 2.3 53 4.0 NW 11 15 6 8 1013.6 1013.6 0.0
23/02:00pm 11.6 8.2 1.8 51 4.2 NW 9 11 5 6 1013.6 1013.6 0.0
23/01:30pm 11.3 7.8 1.3 50 4.2 NW 9 13 5 7 1013.7 1013.7 0.0
23/01:00pm 11.4 7.5 1.1 49 4.3 NW 11 17 6 9 1013.9 1013.9 0.0
23/12:30pm 11.7 8.4 2.5 53 4.0 WNW 9 15 5 8 1014.3 1014.3 0.0
23/12:00pm 11.4 7.8 2.7 55 3.8 NW 11 15 6 8 1014.4 1014.4 0.0
23/11:30am 11.3 8.1 2.9 56 3.7 NW 9 15 5 8 1014.8 1014.8 0.0
23/11:00am 12.1 9.5 3.1 54 4.0 N 6 9 3 5 1014.9 1014.9 0.0
23/10:30am 10.7 8.1 3.3 60 3.2 SE 6 9 3 5 1014.9 1014.9 0.0
23/10:00am 10.2 7.9 4.8 69 2.4 SW 6 9 3 5 1014.9 1014.9 0.0
23/09:30am 9.1 6.0 3.7 69 2.3 SW 9 13 5 7 1014.9 1014.9 0.0
23/09:00am 8.3 5.1 3.2 70 2.2 SW 9 17 5 9 1014.9 1014.9 0.0
23/08:30am 7.7 4.6 3.7 76 1.7 SW 9 13 5 7 1014.8 1014.8 0.0
23/08:00am 6.8 4.3 3.8 81 1.3 SW 6 9 3 5 1014.7 1014.7 0.0
23/07:30am 6.0 3.2 3.0 81 1.2 WSW 7 7 4 4 1014.4 1014.4 0.0
23/07:00am 5.7 2.4 2.7 81 1.2 WSW 9 13 5 7 1014.1 1014.1 0.0
23/06:30am 5.8 2.1 2.6 80 1.3 WSW 11 15 6 8 1013.8 1013.8 0.0
23/06:00am 6.0 2.4 2.8 80 1.3 W 11 15 6 8 1013.6 1013.6 0.0
23/05:30am 6.2 2.6 2.7 78 1.4 WSW 11 15 6 8 1013.4 1013.4 0.0
23/05:00am 6.3 2.3 2.9 79 1.4 WSW 13 19 7 10 1013.3 1013.3 0.0
23/04:30am 6.6 2.7 3.2 79 1.4 WSW 13 20 7 11 1013.2 1013.2 0.0
23/04:00am 6.8 2.9 3.6 80 1.4 WSW 13 20 7 11 1013.2 1013.2 0.0
23/03:30am 7.0 3.1 3.6 79 1.4 WSW 13 20 7 11 1013.2 1013.2 0.0
23/03:00am 6.8 2.8 3.1 77 1.5 WSW 13 17 7 9 1013.3 1013.3 0.0
23/02:30am 7.2 3.3 3.3 76 1.6 WSW 13 20 7 11 1013.4 1013.4 0.0
23/02:00am 7.8 3.2 3.8 76 1.7 W 17 26 9 14 1013.6 1013.6 0.0
23/01:30am 8.2 3.1 4.2 76 1.7 W 20 28 11 15 1013.8 1013.8 0.0
23/01:00am 8.2 3.7 4.4 77 1.7 W 17 24 9 13 1013.8 1013.8 0.0
23/12:30am 7.8 4.5 4.4 79 1.5 WSW 11 17 6 9 1013.8 1013.8 0.0
23/12:00am 7.8 4.5 4.4 79 1.5 W 11 13 6 7 1013.8 1013.8 0.0
 
Date/Time
EST
Temp
°C
App
Temp
°C
Dew
Point
°C
Rel
Hum
%
Delta-T
°C
Wind Press
QNH
hPa
Press
MSL
hPa
Rain since
9am
mm
Dir  Spd
km/h
Gust
km/h
Spd
kts
Gust
kts
22/11:30pm 8.1 4.4 4.7 79 1.5 WSW 13 17 7 9 1013.6 1013.6 0.0
22/11:00pm 8.2 4.9 4.8 79 1.5 WSW 11 17 6 9 1013.6 1013.6 0.0
22/10:30pm 8.8 5.6 5.2 78 1.6 W 11 17 6 9 1013.5 1013.5 0.0
22/10:00pm 9.1 5.9 5.3 77 1.7 WSW 11 17 6 9 1013.4 1013.4 0.0
22/09:30pm 9.8 6.0 5.8 76 1.8 WSW 15 22 8 12 1013.4 1013.4 0.0
22/09:00pm 9.7 6.2 5.5 75 1.9 WSW 13 20 7 11 1013.4 1013.4 0.0
22/08:30pm 10.1 5.3 5.7 74 2.0 W 20 30 11 16 1013.3 1013.3 0.0
22/08:00pm 9.9 4.7 5.3 73 2.1 W 22 28 12 15 1013.0 1013.0 0.0
22/07:30pm 9.9 4.7 5.3 73 2.1 W 22 30 12 16 1012.9 1012.9 0.0
22/07:00pm 10.1 4.5 5.3 72 2.2 W 24 35 13 19 1012.6 1012.6 0.0
22/06:30pm 10.0 5.0 4.6 69 2.4 W 20 30 11 16 1012.5 1012.5 0.0
22/06:00pm 10.1 5.1 4.5 68 2.5 WNW 20 28 11 15 1012.3 1012.3 0.0
22/05:30pm 10.1 4.7 4.3 67 2.6 W 22 32 12 17 1012.0 1012.0 0.0
22/05:00pm 10.6 5.0 3.4 61 3.2 W 22 32 12 17 1012.0 1012.0 0.0
22/04:30pm 11.1 6.0 3.9 61 3.2 W 20 30 11 16 1011.9 1011.9 0.0
22/04:00pm 11.7 5.9 4.2 60 3.4 W 24 32 13 17 1011.8 1011.8 0.0
22/03:30pm 11.9 6.8 4.2 59 3.5 W 20 32 11 17 1011.6 1011.6 0.0
22/03:00pm 12.1 6.5 3.3 55 3.9 WNW 22 32 12 17 1011.6 1011.6 0.0
22/02:30pm 12.6 7.6 3.8 55 4.0 W 19 32 10 17 1011.6 1011.6 0.0
22/02:00pm 12.6 7.5 4.1 56 3.8 W 20 35 11 19 1011.6 1011.6 0.0
22/01:30pm 12.6 7.3 4.8 59 3.6 WNW 22 32 12 17 1011.7 1011.7 0.0
22/01:00pm 11.9 6.8 3.9 58 3.6 W 20 30 11 16 1012.0 1012.0 0.0
22/12:30pm 11.8 6.8 4.5 61 3.3 W 20 30 11 16 1012.2 1012.2 0.0
22/12:00pm 11.7 7.3 4.9 63 3.1 WNW 17 26 9 14 1012.6 1012.6 0.0
22/11:30am 11.2 6.4 4.9 65 2.9 W 19 26 10 14 1012.9 1012.9 0.0
22/11:00am 11.2 6.5 5.3 67 2.7 W 19 24 10 13 1013.0 1013.0 0.0
22/10:30am 10.9 6.6 5.4 69 2.5 W 17 22 9 12 1012.9 1012.9 0.0
22/10:00am 11.2 5.6 5.3 67 2.7 W 24 32 13 17 1012.8 1012.8 0.0
22/09:30am 11.6 7.1 6.1 69 2.6 W 19 28 10 15 1012.7 1012.7 0.0
22/09:00am 11.4 6.9 6.3 71 2.4 W 19 26 10 14 1012.7 1012.7 0.0
22/08:30am 10.3 6.7 6.8 79 1.6 W 15 20 8 11 1012.6 1012.6 0.0
22/08:00am 9.1 6.9 6.0 81 1.4 W 7 9 4 5 1012.6 1012.6 0.0
22/07:30am 8.2 5.8 5.1 81 1.4 WSW 7 11 4 6 1012.3 1012.3 0.0
22/07:00am 7.6 5.1 4.6 81 1.3 WSW 7 11 4 6 1012.0 1012.0 0.0
22/06:30am 7.5 4.9 4.3 80 1.4 WSW 7 9 4 5 1011.8 1011.8 0.0
22/06:00am 7.1 4.0 3.7 79 1.5 WSW 9 11 5 6 1011.7 1011.7 0.0
22/05:30am 7.1 4.4 3.7 79 1.4 WSW 7 11 4 6 1011.5 1011.5 0.0
22/05:00am 7.0 4.4 3.4 78 1.5 SW 6 9 3 5 1011.6 1011.6 0.0
22/04:30am 7.5 4.8 3.7 77 1.6 WSW 7 13 4 7 1011.3 1011.3 0.0
22/04:00am 8.1 5.1 4.1 76 1.7 SW 9 15 5 8 1011.2 1011.2 0.0
22/03:30am 9.6 4.7 5.2 74 2.0 W 20 32 11 17 1011.1 1011.1 0.0
22/03:00am 9.8 5.0 5.4 74 2.0 W 20 28 11 15 1011.3 1011.3 0.0
22/02:30am 9.8 4.5 5.0 72 2.2 W 22 32 12 17 1011.4 1011.4 0.0
22/02:00am 9.8 4.0 4.4 69 2.4 W 24 37 13 20 1011.5 1011.5 0.0
22/01:30am 9.8 4.0 4.2 68 2.5 W 24 35 13 19 1011.6 1011.6 0.0
22/01:00am 9.8 3.9 3.8 66 2.6 W 24 35 13 19 1011.5 1011.5 0.0
22/12:30am 9.8 3.5 4.0 67 2.6 W 26 39 14 21 1011.5 1011.5 0.0
22/12:00am 9.8 2.7 3.8 66 2.6 W 30 41 16 22 1011.4 1011.4 0.0
 
Date/Time
EST
Temp
°C
App
Temp
°C
Dew
Point
°C
Rel
Hum
%
Delta-T
°C
Wind Press
QNH
hPa
Press
MSL
hPa
Rain since
9am
mm
Dir  Spd
km/h
Gust
km/h
Spd
kts
Gust
kts
21/11:30pm 9.9 3.7 4.5 69 2.4 W 26 39 14 21 1011.3 1011.3 0.0
21/11:00pm 10.0 3.5 4.6 69 2.4 W 28 35 15 19 1011.3 1011.3 0.0
21/10:30pm 10.3 4.6 4.7 68 2.5 W 24 39 13 21 1011.2 1011.2 0.0
21/10:00pm 10.4 3.9 4.8 68 2.5 W 28 41 15 22 1011.0 1011.0 0.0
21/09:30pm 10.4 4.4 5.2 70 2.4 W 26 37 14 20 1010.7 1010.8 0.0
21/09:00pm 10.6 3.9 5.8 72 2.2 W 30 41 16 22 1010.4 1010.5 0.0
21/08:30pm 10.9 4.4 6.3 73 2.2 WNW 30 39 16 21 1010.3 1010.4 0.0
21/08:00pm 10.8 4.3 6.4 74 2.1 WNW 30 43 16 23 1010.2 1010.3 0.0
21/07:30pm 10.8 4.2 6.0 72 2.2 W 30 44 16 24 1010.1 1010.2 0.0
21/07:00pm 10.9 3.8 6.5 74 2.1 WNW 33 46 18 25 1009.8 1009.9 0.0
21/06:42pm 10.8 3.3 6.2 73 2.1 WNW 35 54 19 29 1009.6 1009.7 0.0

Other Formats:

Comma delimited format used in spreadsheet applications
http://www.bom.gov.au/fwo/IDT60801/IDT60801.95985.axf

JavaScript Object Notation format (JSON) in row-major order
http://www.bom.gov.au/fwo/IDT60801/IDT60801.95985.json